< < Back
Terminal Aerodrome Forecast


Current Version              Previous Versions:   1  2  3  4  5  6  7  8  9  

Terminal Aerodrome Forecast

775
FTUS42 KGSP 251738
TAFCLT
TAF
KCLT 251738Z 2518/2618 03012KT P6SM SCT035 BKN070
     FM260000 08008KT P6SM BKN025
     FM260200 06007KT P6SM OVC015
     FM260600 06006KT P6SM OVC007
     FM261300 06007KT P6SM BKN015
     FM261500 06006KT P6SM SCT050=

Latest METAR

216
SAUS70 KWBC 260600 RRG
MTRCLT
METAR KCLT 260552Z 06009KT 10SM SCT034 OVC100 24/19 A3018 RMK AO2 SLP211
T02440194 10283 20244 52004


USA.gov is the U.S. government's official web portal to all federal, state and local government web resources and services.